sensor_id;sensor_type;location;lat;lon;timestamp;P1;durP1;ratioP1;P2;durP2;ratioP2
27367;SDS011;14839;48.106;11.618;2022-08-02T04:01:36;3.20;;;1.10;;
27367;SDS011;14839;48.106;11.618;2022-08-02T04:04:02;1.27;;;1.00;;
27367;SDS011;14839;48.106;11.618;2022-08-02T04:06:27;2.40;;;0.90;;
27367;SDS011;14839;48.106;11.618;2022-08-02T04:08:53;1.80;;;1.10;;
27367;SDS011;14839;48.106;11.618;2022-08-02T04:11:19;1.40;;;1.20;;
27367;SDS011;14839;48.106;11.618;2022-08-02T04:14:00;4.10;;;1.17;;
27367;SDS011;14839;48.106;11.618;2022-08-02T04:16:39;1.00;;;0.90;;
27367;SDS011;14839;48.106;11.618;2022-08-02T04:19:09;1.20;;;1.10;;
27367;SDS011;14839;48.106;11.618;2022-08-02T04:21:40;5.67;;;1.10;;
27367;SDS011;14839;48.106;11.618;2022-08-02T04:24:07;1.40;;;1.07;;
27367;SDS011;14839;48.106;11.618;2022-08-02T04:26:35;1.60;;;1.30;;
27367;SDS011;14839;48.106;11.618;2022-08-02T04:29:04;1.13;;;1.00;;
27367;SDS011;14839;48.106;11.618;2022-08-02T04:31:30;2.80;;;1.43;;
27367;SDS011;14839;48.106;11.618;2022-08-02T04:33:56;2.47;;;1.20;;
27367;SDS011;14839;48.106;11.618;2022-08-02T04:36:23;1.43;;;1.13;;
27367;SDS011;14839;48.106;11.618;2022-08-02T04:38:49;1.90;;;1.20;;
27367;SDS011;14839;48.106;11.618;2022-08-02T04:41:14;2.60;;;1.37;;
27367;SDS011;14839;48.106;11.618;2022-08-02T04:43:40;1.87;;;1.23;;
27367;SDS011;14839;48.106;11.618;2022-08-02T04:46:06;1.67;;;1.20;;
27367;SDS011;14839;48.106;11.618;2022-08-02T04:48:31;1.87;;;1.33;;
27367;SDS011;14839;48.106;11.618;2022-08-02T04:50:57;1.50;;;1.10;;
27367;SDS011;14839;48.106;11.618;2022-08-02T04:53:23;1.73;;;1.20;;
27367;SDS011;14839;48.106;11.618;2022-08-02T04:55:48;1.60;;;1.07;;
27367;SDS011;14839;48.106;11.618;2022-08-02T04:58:14;1.50;;;1.20;;
27367;SDS011;14839;48.106;11.618;2022-08-02T05:00:40;2.07;;;1.30;;
27367;SDS011;14839;48.106;11.618;2022-08-02T05:03:06;1.10;;;0.90;;
27367;SDS011;14839;48.106;11.618;2022-08-02T05:05:31;2.37;;;1.00;;
27367;SDS011;14839;48.106;11.618;2022-08-02T05:07:57;1.50;;;1.20;;
27367;SDS011;14839;48.106;11.618;2022-08-02T05:10:26;2.23;;;1.37;;
27367;SDS011;14839;48.106;11.618;2022-08-02T05:12:51;3.33;;;1.17;;
27367;SDS011;14839;48.106;11.618;2022-08-02T05:15:17;1.73;;;1.33;;
27367;SDS011;14839;48.106;11.618;2022-08-02T05:17:44;1.90;;;1.07;;
27367;SDS011;14839;48.106;11.618;2022-08-02T05:20:11;2.00;;;1.07;;
27367;SDS011;14839;48.106;11.618;2022-08-02T05:22:40;1.57;;;1.17;;
27367;SDS011;14839;48.106;11.618;2022-08-02T05:25:06;4.63;;;1.20;;
27367;SDS011;14839;48.106;11.618;2022-08-02T05:27:32;1.25;;;1.08;;
27367;SDS011;14839;48.106;11.618;2022-08-02T05:29:58;1.38;;;1.20;;
27367;SDS011;14839;48.106;11.618;2022-08-02T05:32:24;2.03;;;1.02;;
27367;SDS011;14839;48.106;11.618;2022-08-02T05:34:50;1.58;;;1.02;;
27367;SDS011;14839;48.106;11.618;2022-08-02T05:37:16;1.13;;;0.90;;
27367;SDS011;14839;48.106;11.618;2022-08-02T05:39:41;1.20;;;1.10;;
27367;SDS011;14839;48.106;11.618;2022-08-02T05:42:07;1.00;;;0.90;;
27367;SDS011;14839;48.106;11.618;2022-08-02T05:44:33;1.20;;;1.10;;
27367;SDS011;14839;48.106;11.618;2022-08-02T05:46:58;1.33;;;1.10;;
27367;SDS011;14839;48.106;11.618;2022-08-02T05:49:24;0.70;;;0.70;;
27367;SDS011;14839;48.106;11.618;2022-08-02T05:51:51;1.92;;;1.10;;
27367;SDS011;14839;48.106;11.618;2022-08-02T06:00:08;1.00;;;1.00;;
27367;SDS011;14839;48.106;11.618;2022-08-02T06:02:41;1.35;;;1.10;;
27367;SDS011;14839;48.106;11.618;2022-08-02T06:07:38;1.02;;;0.93;;
27367;SDS011;14839;48.106;11.618;2022-08-02T06:10:06;2.03;;;1.00;;
27367;SDS011;14839;48.106;11.618;2022-08-02T06:12:39;1.13;;;1.00;;
27367;SDS011;14839;48.106;11.618;2022-08-02T06:15:20;1.23;;;1.00;;
27367;SDS011;14839;48.106;11.618;2022-08-02T06:17:46;0.98;;;0.90;;
27367;SDS011;14839;48.106;11.618;2022-08-02T06:20:13;1.13;;;1.00;;
27367;SDS011;14839;48.106;11.618;2022-08-02T06:22:42;0.75;;;0.75;;
27367;SDS011;14839;48.106;11.618;2022-08-02T06:25:11;2.33;;;1.10;;
27367;SDS011;14839;48.106;11.618;2022-08-02T06:27:38;1.38;;;1.15;;
27367;SDS011;14839;48.106;11.618;2022-08-02T06:30:05;0.75;;;0.75;;
27367;SDS011;14839;48.106;11.618;2022-08-02T06:32:32;1.38;;;0.90;;
27367;SDS011;14839;48.106;11.618;2022-08-02T06:34:58;0.88;;;0.88;;
27367;SDS011;14839;48.106;11.618;2022-08-02T06:42:51;1.10;;;0.98;;
27367;SDS011;14839;48.106;11.618;2022-08-02T06:45:39;1.13;;;0.93;;
27367;SDS011;14839;48.106;11.618;2022-08-02T06:48:05;0.93;;;0.88;;
27367;SDS011;14839;48.106;11.618;2022-08-02T06:50:31;0.88;;;0.85;;
27367;SDS011;14839;48.106;11.618;2022-08-02T06:52:57;1.00;;;1.00;;
27367;SDS011;14839;48.106;11.618;2022-08-02T06:55:23;0.95;;;0.85;;
27367;SDS011;14839;48.106;11.618;2022-08-02T06:57:48;1.20;;;1.10;;
27367;SDS011;14839;48.106;11.618;2022-08-02T07:00:15;1.00;;;1.00;;
27367;SDS011;14839;48.106;11.618;2022-08-02T07:02:40;1.45;;;0.90;;
27367;SDS011;14839;48.106;11.618;2022-08-02T07:05:06;1.10;;;1.00;;
27367;SDS011;14839;48.106;11.618;2022-08-02T07:07:33;0.70;;;0.70;;
27367;SDS011;14839;48.106;11.618;2022-08-02T07:09:59;0.93;;;0.93;;
27367;SDS011;14839;48.106;11.618;2022-08-02T07:12:25;1.10;;;1.00;;
27367;SDS011;14839;48.106;11.618;2022-08-02T07:14:51;0.80;;;0.80;;
27367;SDS011;14839;48.106;11.618;2022-08-02T07:17:17;1.40;;;1.15;;
27367;SDS011;14839;48.106;11.618;2022-08-02T07:19:43;1.40;;;1.30;;
27367;SDS011;14839;48.106;11.618;2022-08-02T07:22:09;1.67;;;0.88;;
27367;SDS011;14839;48.106;11.618;2022-08-02T07:24:36;1.23;;;0.90;;
27367;SDS011;14839;48.106;11.618;2022-08-02T07:27:04;0.98;;;0.70;;
27367;SDS011;14839;48.106;11.618;2022-08-02T07:29:30;1.23;;;0.77;;
27367;SDS011;14839;48.106;11.618;2022-08-02T07:31:55;0.70;;;0.70;;
27367;SDS011;14839;48.106;11.618;2022-08-02T07:34:21;1.70;;;0.80;;
27367;SDS011;14839;48.106;11.618;2022-08-02T07:36:46;0.85;;;0.85;;
27367;SDS011;14839;48.106;11.618;2022-08-02T07:39:12;1.17;;;1.08;;
27367;SDS011;14839;48.106;11.618;2022-08-02T07:41:38;1.20;;;0.95;;
27367;SDS011;14839;48.106;11.618;2022-08-02T07:44:03;2.90;;;0.90;;
27367;SDS011;14839;48.106;11.618;2022-08-02T07:46:29;0.88;;;0.77;;
27367;SDS011;14839;48.106;11.618;2022-08-02T07:48:57;0.90;;;0.90;;
27367;SDS011;14839;48.106;11.618;2022-08-02T07:51:22;2.70;;;1.15;;
27367;SDS011;14839;48.106;11.618;2022-08-02T07:53:48;1.13;;;0.88;;
27367;SDS011;14839;48.106;11.618;2022-08-02T07:56:14;1.00;;;0.85;;
27367;SDS011;14839;48.106;11.618;2022-08-02T07:58:40;1.65;;;1.10;;
27367;SDS011;14839;48.106;11.618;2022-08-02T08:01:06;1.27;;;1.10;;
27367;SDS011;14839;48.106;11.618;2022-08-02T08:03:32;0.60;;;0.60;;
27367;SDS011;14839;48.106;11.618;2022-08-02T08:05:58;0.82;;;0.65;;
27367;SDS011;14839;48.106;11.618;2022-08-02T08:08:24;1.13;;;0.95;;
27367;SDS011;14839;48.106;11.618;2022-08-02T08:10:49;1.42;;;0.88;;
27367;SDS011;14839;48.106;11.618;2022-08-02T08:13:15;1.20;;;0.98;;
27367;SDS011;14839;48.106;11.618;2022-08-02T08:15:41;1.10;;;1.00;;
27367;SDS011;14839;48.106;11.618;2022-08-02T08:18:07;0.70;;;0.70;;
27367;SDS011;14839;48.106;11.618;2022-08-02T08:20:32;1.42;;;0.95;;
27367;SDS011;14839;48.106;11.618;2022-08-02T08:22:58;2.88;;;1.00;;
27367;SDS011;14839;48.106;11.618;2022-08-02T08:25:23;1.10;;;0.98;;
27367;SDS011;14839;48.106;11.618;2022-08-02T08:27:49;2.05;;;0.90;;
27367;SDS011;14839;48.106;11.618;2022-08-02T08:30:16;2.20;;;1.00;;
27367;SDS011;14839;48.106;11.618;2022-08-02T08:32:43;1.33;;;0.70;;
27367;SDS011;14839;48.106;11.618;2022-08-02T08:35:09;1.45;;;0.98;;
27367;SDS011;14839;48.106;11.618;2022-08-02T08:37:35;0.95;;;0.77;;
27367;SDS011;14839;48.106;11.618;2022-08-02T08:40:05;1.05;;;0.90;;
27367;SDS011;14839;48.106;11.618;2022-08-02T08:42:32;1.42;;;1.15;;
27367;SDS011;14839;48.106;11.618;2022-08-02T08:44:58;1.23;;;0.70;;
27367;SDS011;14839;48.106;11.618;2022-08-02T08:47:37;2.10;;;0.70;;
27367;SDS011;14839;48.106;11.618;2022-08-02T08:50:08;0.95;;;0.70;;
27367;SDS011;14839;48.106;11.618;2022-08-02T08:52:48;1.13;;;0.75;;
27367;SDS011;14839;48.106;11.618;2022-08-02T08:55:21;1.00;;;0.90;;
27367;SDS011;14839;48.106;11.618;2022-08-02T08:57:48;1.27;;;0.95;;
27367;SDS011;14839;48.106;11.618;2022-08-02T09:00:15;0.95;;;0.95;;
27367;SDS011;14839;48.106;11.618;2022-08-02T09:02:41;0.68;;;0.68;;
27367;SDS011;14839;48.106;11.618;2022-08-02T09:05:14;0.80;;;0.80;;
27367;SDS011;14839;48.106;11.618;2022-08-02T09:07:41;0.95;;;0.82;;
27367;SDS011;14839;48.106;11.618;2022-08-02T09:13:04;0.90;;;0.90;;
27367;SDS011;14839;48.106;11.618;2022-08-02T09:15:40;0.65;;;0.60;;
27367;SDS011;14839;48.106;11.618;2022-08-02T09:18:08;1.45;;;0.90;;
27367;SDS011;14839;48.106;11.618;2022-08-02T09:20:34;0.70;;;0.50;;
27367;SDS011;14839;48.106;11.618;2022-08-02T09:23:15;0.70;;;0.70;;
27367;SDS011;14839;48.106;11.618;2022-08-02T09:25:42;0.80;;;0.80;;
27367;SDS011;14839;48.106;11.618;2022-08-02T09:28:27;0.80;;;0.70;;
27367;SDS011;14839;48.106;11.618;2022-08-02T09:33:37;0.98;;;0.70;;
27367;SDS011;14839;48.106;11.618;2022-08-02T09:36:05;0.82;;;0.82;;
27367;SDS011;14839;48.106;11.618;2022-08-02T09:38:31;0.98;;;0.93;;
27367;SDS011;14839;48.106;11.618;2022-08-02T09:40:58;0.77;;;0.70;;
27367;SDS011;14839;48.106;11.618;2022-08-02T09:43:37;0.77;;;0.70;;
27367;SDS011;14839;48.106;11.618;2022-08-02T09:51:26;0.85;;;0.70;;
27367;SDS011;14839;48.106;11.618;2022-08-02T09:53:55;1.27;;;0.70;;
27367;SDS011;14839;48.106;11.618;2022-08-02T09:56:23;0.93;;;0.73;;
27367;SDS011;14839;48.106;11.618;2022-08-02T09:58:50;0.90;;;0.80;;
27367;SDS011;14839;48.106;11.618;2022-08-02T10:01:19;2.00;;;0.80;;
27367;SDS011;14839;48.106;11.618;2022-08-02T10:03:52;0.98;;;0.82;;
27367;SDS011;14839;48.106;11.618;2022-08-02T10:06:28;0.88;;;0.75;;
27367;SDS011;14839;48.106;11.618;2022-08-02T10:08:55;0.73;;;0.70;;
27367;SDS011;14839;48.106;11.618;2022-08-02T10:11:22;1.52;;;1.00;;
27367;SDS011;14839;48.106;11.618;2022-08-02T10:13:49;1.45;;;0.80;;
27367;SDS011;14839;48.106;11.618;2022-08-02T10:16:16;1.92;;;0.80;;
27367;SDS011;14839;48.106;11.618;2022-08-02T10:18:45;0.70;;;0.70;;
27367;SDS011;14839;48.106;11.618;2022-08-02T10:21:12;0.75;;;0.68;;
27367;SDS011;14839;48.106;11.618;2022-08-02T10:23:44;1.13;;;0.90;;
27367;SDS011;14839;48.106;11.618;2022-08-02T10:26:15;1.10;;;0.80;;
27367;SDS011;14839;48.106;11.618;2022-08-02T10:28:44;1.40;;;0.73;;
27367;SDS011;14839;48.106;11.618;2022-08-02T10:31:11;0.90;;;0.80;;
27367;SDS011;14839;48.106;11.618;2022-08-02T10:33:41;1.65;;;1.00;;
27367;SDS011;14839;48.106;11.618;2022-08-02T10:36:08;0.90;;;0.80;;
27367;SDS011;14839;48.106;11.618;2022-08-02T10:38:35;1.30;;;0.80;;
27367;SDS011;14839;48.106;11.618;2022-08-02T10:41:01;0.93;;;0.70;;
27367;SDS011;14839;48.106;11.618;2022-08-02T10:49:03;0.60;;;0.55;;
27367;SDS011;14839;48.106;11.618;2022-08-02T10:56:56;1.55;;;0.80;;
27367;SDS011;14839;48.106;11.618;2022-08-02T11:01:52;1.52;;;0.63;;
27367;SDS011;14839;48.106;11.618;2022-08-02T11:07:10;0.68;;;0.57;;
27367;SDS011;14839;48.106;11.618;2022-08-02T11:09:38;0.75;;;0.70;;
27367;SDS011;14839;48.106;11.618;2022-08-02T11:12:12;1.48;;;0.70;;
27367;SDS011;14839;48.106;11.618;2022-08-02T11:14:40;1.13;;;0.77;;
27367;SDS011;14839;48.106;11.618;2022-08-02T11:17:14;0.50;;;0.50;;
27367;SDS011;14839;48.106;11.618;2022-08-02T11:22:32;0.77;;;0.77;;
27367;SDS011;14839;48.106;11.618;2022-08-02T11:24:57;0.80;;;0.80;;
27367;SDS011;14839;48.106;11.618;2022-08-02T11:27:50;0.60;;;0.60;;
27367;SDS011;14839;48.106;11.618;2022-08-02T11:30:20;0.90;;;0.60;;
27367;SDS011;14839;48.106;11.618;2022-08-02T11:32:47;0.80;;;0.80;;
27367;SDS011;14839;48.106;11.618;2022-08-02T11:35:13;0.52;;;0.52;;
27367;SDS011;14839;48.106;11.618;2022-08-02T11:37:41;0.57;;;0.57;;
27367;SDS011;14839;48.106;11.618;2022-08-02T11:40:09;0.75;;;0.60;;
27367;SDS011;14839;48.106;11.618;2022-08-02T11:42:40;0.60;;;0.60;;
27367;SDS011;14839;48.106;11.618;2022-08-02T11:45:08;0.70;;;0.70;;
27367;SDS011;14839;48.106;11.618;2022-08-02T11:47:45;0.95;;;0.90;;
27367;SDS011;14839;48.106;11.618;2022-08-02T11:50:12;0.75;;;0.75;;
27367;SDS011;14839;48.106;11.618;2022-08-02T11:52:41;1.00;;;0.90;;
27367;SDS011;14839;48.106;11.618;2022-08-02T11:55:07;0.75;;;0.73;;
27367;SDS011;14839;48.106;11.618;2022-08-02T11:57:33;1.38;;;0.70;;
27367;SDS011;14839;48.106;11.618;2022-08-02T11:59:59;0.65;;;0.63;;
27367;SDS011;14839;48.106;11.618;2022-08-02T12:02:29;0.73;;;0.73;;
27367;SDS011;14839;48.106;11.618;2022-08-02T12:04:57;0.57;;;0.57;;
27367;SDS011;14839;48.106;11.618;2022-08-02T12:07:25;1.27;;;0.73;;
27367;SDS011;14839;48.106;11.618;2022-08-02T12:09:58;0.50;;;0.50;;
27367;SDS011;14839;48.106;11.618;2022-08-02T12:18:02;1.35;;;0.88;;
27367;SDS011;14839;48.106;11.618;2022-08-02T12:20:51;0.50;;;0.50;;
27367;SDS011;14839;48.106;11.618;2022-08-02T12:23:17;0.60;;;0.60;;
27367;SDS011;14839;48.106;11.618;2022-08-02T12:25:43;0.82;;;0.75;;
27367;SDS011;14839;48.106;11.618;2022-08-02T12:28:12;0.98;;;0.73;;
27367;SDS011;14839;48.106;11.618;2022-08-02T12:33:16;0.73;;;0.73;;
27367;SDS011;14839;48.106;11.618;2022-08-02T12:35:42;0.95;;;0.60;;
27367;SDS011;14839;48.106;11.618;2022-08-02T12:38:09;0.60;;;0.60;;
27367;SDS011;14839;48.106;11.618;2022-08-02T12:40:35;0.55;;;0.50;;
27367;SDS011;14839;48.106;11.618;2022-08-02T12:43:05;1.10;;;0.75;;
27367;SDS011;14839;48.106;11.618;2022-08-02T12:45:43;0.55;;;0.55;;
27367;SDS011;14839;48.106;11.618;2022-08-02T12:48:14;1.63;;;0.60;;
27367;SDS011;14839;48.106;11.618;2022-08-02T12:50:41;3.90;;;0.60;;
27367;SDS011;14839;48.106;11.618;2022-08-02T12:53:09;0.82;;;0.50;;
27367;SDS011;14839;48.106;11.618;2022-08-02T12:55:47;1.67;;;0.90;;
27367;SDS011;14839;48.106;11.618;2022-08-02T12:58:18;0.60;;;0.60;;
27367;SDS011;14839;48.106;11.618;2022-08-02T13:00:50;2.60;;;0.60;;
27367;SDS011;14839;48.106;11.618;2022-08-02T13:03:17;0.80;;;0.60;;
27367;SDS011;14839;48.106;11.618;2022-08-02T13:05:44;1.23;;;0.50;;
27367;SDS011;14839;48.106;11.618;2022-08-02T13:08:10;0.98;;;0.77;;
27367;SDS011;14839;48.106;11.618;2022-08-02T13:10:35;0.52;;;0.52;;
27367;SDS011;14839;48.106;11.618;2022-08-02T13:13:01;0.60;;;0.60;;
27367;SDS011;14839;48.106;11.618;2022-08-02T13:15:27;6.60;;;0.90;;
27367;SDS011;14839;48.106;11.618;2022-08-02T13:17:53;0.50;;;0.50;;
27367;SDS011;14839;48.106;11.618;2022-08-02T13:20:18;0.50;;;0.50;;
27367;SDS011;14839;48.106;11.618;2022-08-02T13:22:44;1.00;;;0.60;;
27367;SDS011;14839;48.106;11.618;2022-08-02T13:25:10;1.35;;;0.80;;
27367;SDS011;14839;48.106;11.618;2022-08-02T13:27:36;0.65;;;0.65;;
27367;SDS011;14839;48.106;11.618;2022-08-02T13:30:03;0.85;;;0.50;;
27367;SDS011;14839;48.106;11.618;2022-08-02T13:32:29;3.90;;;0.95;;
27367;SDS011;14839;48.106;11.618;2022-08-02T13:34:56;0.57;;;0.50;;
27367;SDS011;14839;48.106;11.618;2022-08-02T13:37:22;0.65;;;0.65;;
27367;SDS011;14839;48.106;11.618;2022-08-02T13:39:48;0.70;;;0.60;;
27367;SDS011;14839;48.106;11.618;2022-08-02T13:42:14;0.57;;;0.57;;
27367;SDS011;14839;48.106;11.618;2022-08-02T13:44:40;0.80;;;0.60;;
27367;SDS011;14839;48.106;11.618;2022-08-02T13:47:05;0.70;;;0.70;;
27367;SDS011;14839;48.106;11.618;2022-08-02T13:49:32;0.90;;;0.90;;
27367;SDS011;14839;48.106;11.618;2022-08-02T13:51:58;0.68;;;0.60;;
27367;SDS011;14839;48.106;11.618;2022-08-02T13:54:23;0.63;;;0.57;;
27367;SDS011;14839;48.106;11.618;2022-08-02T13:56:49;0.70;;;0.70;;
27367;SDS011;14839;48.106;11.618;2022-08-02T13:59:14;0.40;;;0.40;;
27367;SDS011;14839;48.106;11.618;2022-08-02T14:01:40;0.63;;;0.57;;
27367;SDS011;14839;48.106;11.618;2022-08-02T14:04:05;0.80;;;0.52;;
27367;SDS011;14839;48.106;11.618;2022-08-02T14:06:31;0.52;;;0.45;;
27367;SDS011;14839;48.106;11.618;2022-08-02T14:08:57;1.08;;;0.80;;
27367;SDS011;14839;48.106;11.618;2022-08-02T14:11:23;0.77;;;0.70;;
27367;SDS011;14839;48.106;11.618;2022-08-02T14:13:48;2.88;;;0.77;;
27367;SDS011;14839;48.106;11.618;2022-08-02T14:16:14;0.50;;;0.50;;
27367;SDS011;14839;48.106;11.618;2022-08-02T14:18:40;1.20;;;0.60;;
27367;SDS011;14839;48.106;11.618;2022-08-02T14:21:06;0.52;;;0.52;;
27367;SDS011;14839;48.106;11.618;2022-08-02T14:23:31;0.60;;;0.60;;
27367;SDS011;14839;48.106;11.618;2022-08-02T14:25:57;0.73;;;0.65;;
27367;SDS011;14839;48.106;11.618;2022-08-02T14:28:23;0.57;;;0.57;;
27367;SDS011;14839;48.106;11.618;2022-08-02T14:30:49;0.70;;;0.70;;
27367;SDS011;14839;48.106;11.618;2022-08-02T14:33:14;0.68;;;0.68;;
27367;SDS011;14839;48.106;11.618;2022-08-02T14:35:42;2.75;;;0.68;;
27367;SDS011;14839;48.106;11.618;2022-08-02T14:38:08;0.60;;;0.60;;
27367;SDS011;14839;48.106;11.618;2022-08-02T14:40:33;1.02;;;0.60;;
27367;SDS011;14839;48.106;11.618;2022-08-02T14:42:59;0.73;;;0.68;;
27367;SDS011;14839;48.106;11.618;2022-08-02T14:45:25;0.55;;;0.55;;
27367;SDS011;14839;48.106;11.618;2022-08-02T14:47:53;1.48;;;0.60;;
27367;SDS011;14839;48.106;11.618;2022-08-02T14:50:19;2.67;;;0.60;;
27367;SDS011;14839;48.106;11.618;2022-08-02T14:52:45;0.60;;;0.60;;
27367;SDS011;14839;48.106;11.618;2022-08-02T14:55:12;0.93;;;0.60;;
27367;SDS011;14839;48.106;11.618;2022-08-02T14:57:38;0.73;;;0.60;;
27367;SDS011;14839;48.106;11.618;2022-08-02T15:00:04;0.70;;;0.60;;
27367;SDS011;14839;48.106;11.618;2022-08-02T15:02:31;1.10;;;0.50;;
27367;SDS011;14839;48.106;11.618;2022-08-02T15:04:56;0.73;;;0.60;;
27367;SDS011;14839;48.106;11.618;2022-08-02T15:07:22;0.70;;;0.70;;
27367;SDS011;14839;48.106;11.618;2022-08-02T15:09:48;0.50;;;0.50;;
27367;SDS011;14839;48.106;11.618;2022-08-02T15:12:14;0.70;;;0.60;;
27367;SDS011;14839;48.106;11.618;2022-08-02T15:14:40;0.52;;;0.52;;
27367;SDS011;14839;48.106;11.618;2022-08-02T15:17:06;0.63;;;0.55;;
27367;SDS011;14839;48.106;11.618;2022-08-02T15:19:32;0.60;;;0.50;;
27367;SDS011;14839;48.106;11.618;2022-08-02T15:21:58;0.55;;;0.50;;
27367;SDS011;14839;48.106;11.618;2022-08-02T15:24:24;0.50;;;0.50;;
27367;SDS011;14839;48.106;11.618;2022-08-02T15:26:50;0.73;;;0.60;;
27367;SDS011;14839;48.106;11.618;2022-08-02T15:29:16;1.20;;;0.73;;
27367;SDS011;14839;48.106;11.618;2022-08-02T15:31:42;0.75;;;0.43;;
27367;SDS011;14839;48.106;11.618;2022-08-02T15:34:08;0.70;;;0.65;;
27367;SDS011;14839;48.106;11.618;2022-08-02T15:36:34;0.55;;;0.55;;
27367;SDS011;14839;48.106;11.618;2022-08-02T15:39:00;1.13;;;0.50;;
27367;SDS011;14839;48.106;11.618;2022-08-02T15:41:25;1.85;;;0.60;;
27367;SDS011;14839;48.106;11.618;2022-08-02T15:43:51;0.90;;;0.50;;
27367;SDS011;14839;48.106;11.618;2022-08-02T15:46:17;0.50;;;0.45;;
27367;SDS011;14839;48.106;11.618;2022-08-02T15:48:43;0.52;;;0.50;;
27367;SDS011;14839;48.106;11.618;2022-08-02T15:51:08;0.50;;;0.50;;
27367;SDS011;14839;48.106;11.618;2022-08-02T15:53:34;0.50;;;0.47;;
27367;SDS011;14839;48.106;11.618;2022-08-02T15:56:00;0.70;;;0.70;;
27367;SDS011;14839;48.106;11.618;2022-08-02T15:58:26;0.60;;;0.60;;
27367;SDS011;14839;48.106;11.618;2022-08-02T16:00:51;0.60;;;0.40;;
27367;SDS011;14839;48.106;11.618;2022-08-02T16:03:18;0.55;;;0.50;;
27367;SDS011;14839;48.106;11.618;2022-08-02T16:05:44;0.50;;;0.50;;
27367;SDS011;14839;48.106;11.618;2022-08-02T16:08:10;0.60;;;0.60;;
27367;SDS011;14839;48.106;11.618;2022-08-02T16:10:35;0.57;;;0.52;;
27367;SDS011;14839;48.106;11.618;2022-08-02T16:13:01;0.50;;;0.50;;
27367;SDS011;14839;48.106;11.618;2022-08-02T16:15:45;0.88;;;0.43;;
27367;SDS011;14839;48.106;11.618;2022-08-02T16:18:11;1.77;;;0.70;;
27367;SDS011;14839;48.106;11.618;2022-08-02T16:20:36;1.05;;;0.60;;
27367;SDS011;14839;48.106;11.618;2022-08-02T16:23:05;0.43;;;0.43;;
27367;SDS011;14839;48.106;11.618;2022-08-02T16:25:30;0.68;;;0.57;;
27367;SDS011;14839;48.106;11.618;2022-08-02T16:27:56;0.50;;;0.50;;
27367;SDS011;14839;48.106;11.618;2022-08-02T16:30:21;1.45;;;0.70;;
27367;SDS011;14839;48.106;11.618;2022-08-02T16:32:47;0.75;;;0.50;;
27367;SDS011;14839;48.106;11.618;2022-08-02T16:35:13;0.77;;;0.60;;
27367;SDS011;14839;48.106;11.618;2022-08-02T16:37:39;1.85;;;0.85;;
27367;SDS011;14839;48.106;11.618;2022-08-02T16:40:05;0.50;;;0.50;;
27367;SDS011;14839;48.106;11.618;2022-08-02T16:42:30;0.47;;;0.45;;
27367;SDS011;14839;48.106;11.618;2022-08-02T16:44:56;0.95;;;0.70;;
27367;SDS011;14839;48.106;11.618;2022-08-02T16:47:22;0.47;;;0.40;;
27367;SDS011;14839;48.106;11.618;2022-08-02T16:49:50;0.75;;;0.75;;
27367;SDS011;14839;48.106;11.618;2022-08-02T16:52:16;0.50;;;0.50;;
27367;SDS011;14839;48.106;11.618;2022-08-02T16:54:42;0.40;;;0.38;;
27367;SDS011;14839;48.106;11.618;2022-08-02T16:57:08;0.80;;;0.50;;
27367;SDS011;14839;48.106;11.618;2022-08-02T16:59:33;0.50;;;0.40;;
27367;SDS011;14839;48.106;11.618;2022-08-02T17:02:00;0.88;;;0.70;;
27367;SDS011;14839;48.106;11.618;2022-08-02T17:04:26;0.50;;;0.50;;
27367;SDS011;14839;48.106;11.618;2022-08-02T17:06:51;0.40;;;0.40;;
27367;SDS011;14839;48.106;11.618;2022-08-02T17:09:18;0.50;;;0.50;;
27367;SDS011;14839;48.106;11.618;2022-08-02T17:11:44;0.70;;;0.47;;
27367;SDS011;14839;48.106;11.618;2022-08-02T17:14:09;0.65;;;0.60;;
27367;SDS011;14839;48.106;11.618;2022-08-02T17:16:35;0.50;;;0.50;;
27367;SDS011;14839;48.106;11.618;2022-08-02T17:19:00;0.50;;;0.40;;
27367;SDS011;14839;48.106;11.618;2022-08-02T17:21:26;0.40;;;0.40;;
27367;SDS011;14839;48.106;11.618;2022-08-02T17:23:52;0.50;;;0.50;;
27367;SDS011;14839;48.106;11.618;2022-08-02T17:26:17;1.20;;;0.65;;
27367;SDS011;14839;48.106;11.618;2022-08-02T17:28:43;0.60;;;0.50;;
27367;SDS011;14839;48.106;11.618;2022-08-02T17:31:09;0.75;;;0.52;;
27367;SDS011;14839;48.106;11.618;2022-08-02T17:33:34;0.40;;;0.40;;
27367;SDS011;14839;48.106;11.618;2022-08-02T17:36:00;0.50;;;0.50;;
27367;SDS011;14839;48.106;11.618;2022-08-02T17:38:26;0.50;;;0.38;;
27367;SDS011;14839;48.106;11.618;2022-08-02T17:40:54;0.70;;;0.63;;
27367;SDS011;14839;48.106;11.618;2022-08-02T17:43:20;0.43;;;0.43;;
27367;SDS011;14839;48.106;11.618;2022-08-02T17:45:46;0.60;;;0.43;;
27367;SDS011;14839;48.106;11.618;2022-08-02T17:48:11;0.70;;;0.50;;
27367;SDS011;14839;48.106;11.618;2022-08-02T17:50:37;1.05;;;0.52;;
27367;SDS011;14839;48.106;11.618;2022-08-02T17:53:03;0.80;;;0.60;;
27367;SDS011;14839;48.106;11.618;2022-08-02T17:55:28;1.13;;;0.50;;
27367;SDS011;14839;48.106;11.618;2022-08-02T17:57:54;1.30;;;0.73;;
27367;SDS011;14839;48.106;11.618;2022-08-02T18:00:20;0.63;;;0.47;;
27367;SDS011;14839;48.106;11.618;2022-08-02T18:02:45;0.60;;;0.60;;
27367;SDS011;14839;48.106;11.618;2022-08-02T18:05:12;1.13;;;0.70;;
27367;SDS011;14839;48.106;11.618;2022-08-02T18:07:38;1.35;;;0.90;;
27367;SDS011;14839;48.106;11.618;2022-08-02T18:10:04;0.60;;;0.50;;
27367;SDS011;14839;48.106;11.618;2022-08-02T18:12:30;1.85;;;0.77;;
27367;SDS011;14839;48.106;11.618;2022-08-02T18:14:56;1.35;;;0.70;;
27367;SDS011;14839;48.106;11.618;2022-08-02T18:17:22;1.13;;;0.70;;
27367;SDS011;14839;48.106;11.618;2022-08-02T18:19:47;0.80;;;0.50;;
27367;SDS011;14839;48.106;11.618;2022-08-02T18:22:13;1.13;;;0.60;;
27367;SDS011;14839;48.106;11.618;2022-08-02T18:24:39;0.95;;;0.45;;
27367;SDS011;14839;48.106;11.618;2022-08-02T18:27:05;0.70;;;0.70;;
27367;SDS011;14839;48.106;11.618;2022-08-02T18:29:30;1.05;;;0.70;;
27367;SDS011;14839;48.106;11.618;2022-08-02T18:31:56;0.70;;;0.65;;
27367;SDS011;14839;48.106;11.618;2022-08-02T18:34:22;0.60;;;0.57;;
27367;SDS011;14839;48.106;11.618;2022-08-02T18:36:48;2.70;;;1.00;;
27367;SDS011;14839;48.106;11.618;2022-08-02T18:39:14;0.80;;;0.70;;
27367;SDS011;14839;48.106;11.618;2022-08-02T18:41:40;1.83;;;0.80;;
27367;SDS011;14839;48.106;11.618;2022-08-02T18:44:08;1.20;;;0.88;;
27367;SDS011;14839;48.106;11.618;2022-08-02T18:46:34;1.38;;;0.60;;
27367;SDS011;14839;48.106;11.618;2022-08-02T18:49:00;1.40;;;0.80;;
27367;SDS011;14839;48.106;11.618;2022-08-02T18:51:27;1.48;;;0.75;;
27367;SDS011;14839;48.106;11.618;2022-08-02T18:53:52;1.25;;;0.90;;
27367;SDS011;14839;48.106;11.618;2022-08-02T18:56:18;1.08;;;0.75;;
27367;SDS011;14839;48.106;11.618;2022-08-02T18:58:45;1.33;;;1.02;;
27367;SDS011;14839;48.106;11.618;2022-08-02T19:01:11;1.80;;;1.20;;
27367;SDS011;14839;48.106;11.618;2022-08-02T19:03:37;1.02;;;0.63;;
27367;SDS011;14839;48.106;11.618;2022-08-02T19:06:02;1.20;;;0.88;;
27367;SDS011;14839;48.106;11.618;2022-08-02T19:08:28;5.38;;;0.80;;
27367;SDS011;14839;48.106;11.618;2022-08-02T19:10:54;0.95;;;0.70;;
27367;SDS011;14839;48.106;11.618;2022-08-02T19:13:20;1.70;;;1.30;;
27367;SDS011;14839;48.106;11.618;2022-08-02T19:15:45;2.17;;;1.50;;
27367;SDS011;14839;48.106;11.618;2022-08-02T19:18:11;3.40;;;2.85;;
27367;SDS011;14839;48.106;11.618;2022-08-02T19:20:37;3.58;;;2.38;;
27367;SDS011;14839;48.106;11.618;2022-08-02T19:23:03;1.33;;;1.23;;
27367;SDS011;14839;48.106;11.618;2022-08-02T19:25:31;1.40;;;1.30;;